Terminal Aerodrome Forecast
Issued by NWS Sterling, VA

Home | Current Version | Previous Version | Text Only | Print | Product List | Glossary On
Versions: 1 2 3 4 5 6 7 8 9 10 11 12 13 14 15 16
045
FTUS41 KLWX 252331
TAFCHO
TAF
KCHO 252331Z 2600/2624 29012G22KT P6SM FEW250
     FM260300 28010G22KT P6SM FEW250
     FM260500 27008KT P6SM FEW250=

USA.gov is the U.S. government's official web portal to all federal, state and local government web resources and services.